sensor_id;sensor_type;location;lat;lon;timestamp;P1;durP1;ratioP1;P2;durP2;ratioP2
68995;SDS011;56056;48.990;12.146;2023-06-10T00:00:45;1438.43;;;999.90;;
68995;SDS011;56056;48.990;12.146;2023-06-10T00:03:12;1500.60;;;999.90;;
68995;SDS011;56056;48.990;12.146;2023-06-10T00:05:39;1490.25;;;999.90;;
68995;SDS011;56056;48.990;12.146;2023-06-10T00:08:05;1418.50;;;999.90;;
68995;SDS011;56056;48.990;12.146;2023-06-10T00:10:33;1418.53;;;999.90;;
68995;SDS011;56056;48.990;12.146;2023-06-10T00:13:00;1341.65;;;999.90;;
68995;SDS011;56056;48.990;12.146;2023-06-10T00:15:26;1425.70;;;999.90;;
68995;SDS011;56056;48.990;12.146;2023-06-10T00:17:51;1558.43;;;999.90;;
68995;SDS011;56056;48.990;12.146;2023-06-10T00:20:19;1607.05;;;999.90;;
68995;SDS011;56056;48.990;12.146;2023-06-10T00:22:46;1747.80;;;999.90;;
68995;SDS011;56056;48.990;12.146;2023-06-10T00:25:13;1732.05;;;999.90;;
68995;SDS011;56056;48.990;12.146;2023-06-10T00:27:39;1818.15;;;999.90;;
68995;SDS011;56056;48.990;12.146;2023-06-10T00:30:05;1982.00;;;999.90;;
68995;SDS011;56056;48.990;12.146;2023-06-10T00:32:32;1801.45;;;999.90;;
68995;SDS011;56056;48.990;12.146;2023-06-10T00:34:57;1895.07;;;999.90;;
68995;SDS011;56056;48.990;12.146;2023-06-10T00:37:24;1892.30;;;999.90;;
68995;SDS011;56056;48.990;12.146;2023-06-10T00:39:50;1948.97;;;999.90;;
68995;SDS011;56056;48.990;12.146;2023-06-10T00:42:16;1999.90;;;999.90;;
68995;SDS011;56056;48.990;12.146;2023-06-10T00:44:42;1981.82;;;999.90;;
68995;SDS011;56056;48.990;12.146;2023-06-10T00:47:07;1999.90;;;999.90;;
68995;SDS011;56056;48.990;12.146;2023-06-10T00:49:33;1988.03;;;999.90;;
68995;SDS011;56056;48.990;12.146;2023-06-10T00:51:59;1999.90;;;999.90;;
68995;SDS011;56056;48.990;12.146;2023-06-10T00:54:27;1988.32;;;999.90;;
68995;SDS011;56056;48.990;12.146;2023-06-10T00:56:53;1968.18;;;999.90;;
68995;SDS011;56056;48.990;12.146;2023-06-10T00:59:18;1943.30;;;999.90;;
68995;SDS011;56056;48.990;12.146;2023-06-10T01:01:45;1949.13;;;999.90;;
68995;SDS011;56056;48.990;12.146;2023-06-10T01:04:12;1915.63;;;999.90;;
68995;SDS011;56056;48.990;12.146;2023-06-10T01:06:40;1925.97;;;999.90;;
68995;SDS011;56056;48.990;12.146;2023-06-10T01:09:13;1959.57;;;999.90;;
68995;SDS011;56056;48.990;12.146;2023-06-10T01:11:46;1829.35;;;999.90;;
68995;SDS011;56056;48.990;12.146;2023-06-10T01:14:14;1881.70;;;999.90;;
68995;SDS011;56056;48.990;12.146;2023-06-10T01:16:41;1935.22;;;999.90;;
68995;SDS011;56056;48.990;12.146;2023-06-10T01:19:07;1927.47;;;999.90;;
68995;SDS011;56056;48.990;12.146;2023-06-10T01:21:34;1916.50;;;999.90;;
68995;SDS011;56056;48.990;12.146;2023-06-10T01:24:04;1851.88;;;999.90;;
68995;SDS011;56056;48.990;12.146;2023-06-10T01:26:33;1973.20;;;999.90;;
68995;SDS011;56056;48.990;12.146;2023-06-10T01:29:02;1970.93;;;999.90;;
68995;SDS011;56056;48.990;12.146;2023-06-10T01:31:33;1999.90;;;999.90;;
68995;SDS011;56056;48.990;12.146;2023-06-10T01:34:02;1912.35;;;999.90;;
68995;SDS011;56056;48.990;12.146;2023-06-10T01:36:30;1984.50;;;999.90;;
68995;SDS011;56056;48.990;12.146;2023-06-10T01:38:58;1874.13;;;999.90;;
68995;SDS011;56056;48.990;12.146;2023-06-10T01:41:25;1848.47;;;999.90;;
68995;SDS011;56056;48.990;12.146;2023-06-10T01:43:51;1869.15;;;999.90;;
68995;SDS011;56056;48.990;12.146;2023-06-10T01:46:17;1837.28;;;999.90;;
68995;SDS011;56056;48.990;12.146;2023-06-10T01:48:46;1862.45;;;999.90;;
68995;SDS011;56056;48.990;12.146;2023-06-10T01:51:12;1887.40;;;999.90;;
68995;SDS011;56056;48.990;12.146;2023-06-10T01:53:37;1908.32;;;999.90;;
68995;SDS011;56056;48.990;12.146;2023-06-10T01:56:04;1871.00;;;999.90;;
68995;SDS011;56056;48.990;12.146;2023-06-10T01:58:30;1819.65;;;999.90;;
68995;SDS011;56056;48.990;12.146;2023-06-10T02:00:56;1883.00;;;999.90;;
68995;SDS011;56056;48.990;12.146;2023-06-10T02:03:22;1889.93;;;999.90;;
68995;SDS011;56056;48.990;12.146;2023-06-10T02:05:48;1826.07;;;999.90;;
68995;SDS011;56056;48.990;12.146;2023-06-10T02:08:14;1830.78;;;999.90;;
68995;SDS011;56056;48.990;12.146;2023-06-10T02:10:39;1811.47;;;999.90;;
68995;SDS011;56056;48.990;12.146;2023-06-10T02:13:07;1742.55;;;999.90;;
68995;SDS011;56056;48.990;12.146;2023-06-10T02:15:32;1844.03;;;999.90;;
68995;SDS011;56056;48.990;12.146;2023-06-10T02:17:58;1858.13;;;999.90;;
68995;SDS011;56056;48.990;12.146;2023-06-10T02:20:24;1894.45;;;999.90;;
68995;SDS011;56056;48.990;12.146;2023-06-10T02:22:50;1860.32;;;999.90;;
68995;SDS011;56056;48.990;12.146;2023-06-10T02:25:16;1841.95;;;999.90;;
68995;SDS011;56056;48.990;12.146;2023-06-10T02:27:41;1840.30;;;999.90;;
68995;SDS011;56056;48.990;12.146;2023-06-10T02:30:09;1818.50;;;999.90;;
68995;SDS011;56056;48.990;12.146;2023-06-10T02:32:35;1854.75;;;999.90;;
68995;SDS011;56056;48.990;12.146;2023-06-10T02:35:01;1751.18;;;999.90;;
68995;SDS011;56056;48.990;12.146;2023-06-10T02:37:27;1762.50;;;999.90;;
68995;SDS011;56056;48.990;12.146;2023-06-10T02:39:52;1666.07;;;999.90;;
68995;SDS011;56056;48.990;12.146;2023-06-10T02:42:19;1700.05;;;999.90;;
68995;SDS011;56056;48.990;12.146;2023-06-10T02:44:44;1672.30;;;999.90;;
68995;SDS011;56056;48.990;12.146;2023-06-10T02:47:11;1706.13;;;999.90;;
68995;SDS011;56056;48.990;12.146;2023-06-10T02:49:37;1609.13;;;999.90;;
68995;SDS011;56056;48.990;12.146;2023-06-10T02:52:03;1628.07;;;999.90;;
68995;SDS011;56056;48.990;12.146;2023-06-10T02:54:28;1616.05;;;999.90;;
68995;SDS011;56056;48.990;12.146;2023-06-10T02:56:54;1723.22;;;999.90;;
68995;SDS011;56056;48.990;12.146;2023-06-10T02:59:20;1538.22;;;999.90;;
68995;SDS011;56056;48.990;12.146;2023-06-10T03:01:46;1674.05;;;999.90;;
68995;SDS011;56056;48.990;12.146;2023-06-10T03:04:13;1608.97;;;999.90;;
68995;SDS011;56056;48.990;12.146;2023-06-10T03:06:39;1560.22;;;999.90;;
68995;SDS011;56056;48.990;12.146;2023-06-10T03:09:10;1493.75;;;999.90;;
68995;SDS011;56056;48.990;12.146;2023-06-10T03:11:36;1586.35;;;999.90;;
68995;SDS011;56056;48.990;12.146;2023-06-10T03:14:01;1497.60;;;999.90;;
68995;SDS011;56056;48.990;12.146;2023-06-10T03:16:27;1531.22;;;999.90;;
68995;SDS011;56056;48.990;12.146;2023-06-10T03:18:53;1496.13;;;999.90;;
68995;SDS011;56056;48.990;12.146;2023-06-10T03:21:20;1533.63;;;999.90;;
68995;SDS011;56056;48.990;12.146;2023-06-10T03:23:46;1516.35;;;999.90;;
68995;SDS011;56056;48.990;12.146;2023-06-10T03:26:11;1433.00;;;999.90;;
68995;SDS011;56056;48.990;12.146;2023-06-10T03:28:40;1494.30;;;999.90;;
68995;SDS011;56056;48.990;12.146;2023-06-10T03:31:06;1439.35;;;999.90;;
68995;SDS011;56056;48.990;12.146;2023-06-10T03:33:32;1471.88;;;999.90;;
68995;SDS011;56056;48.990;12.146;2023-06-10T03:35:57;1496.03;;;999.90;;
68995;SDS011;56056;48.990;12.146;2023-06-10T03:38:24;1611.78;;;999.90;;
68995;SDS011;56056;48.990;12.146;2023-06-10T03:40:50;1502.82;;;999.90;;
68995;SDS011;56056;48.990;12.146;2023-06-10T03:43:16;1540.35;;;999.90;;
68995;SDS011;56056;48.990;12.146;2023-06-10T03:45:41;1546.15;;;999.90;;
68995;SDS011;56056;48.990;12.146;2023-06-10T03:48:07;1414.32;;;999.90;;
68995;SDS011;56056;48.990;12.146;2023-06-10T03:50:33;1335.03;;;999.90;;
68995;SDS011;56056;48.990;12.146;2023-06-10T03:52:59;1356.97;;;999.90;;
68995;SDS011;56056;48.990;12.146;2023-06-10T03:55:26;1368.13;;;999.90;;
68995;SDS011;56056;48.990;12.146;2023-06-10T03:57:51;1436.03;;;999.90;;
68995;SDS011;56056;48.990;12.146;2023-06-10T04:00:18;1447.53;;;999.90;;
68995;SDS011;56056;48.990;12.146;2023-06-10T04:02:46;1399.82;;;999.90;;
68995;SDS011;56056;48.990;12.146;2023-06-10T04:05:12;1468.22;;;999.90;;
68995;SDS011;56056;48.990;12.146;2023-06-10T04:07:38;1416.82;;;999.90;;
68995;SDS011;56056;48.990;12.146;2023-06-10T04:10:07;1503.82;;;999.90;;
68995;SDS011;56056;48.990;12.146;2023-06-10T04:12:35;1439.80;;;999.90;;
68995;SDS011;56056;48.990;12.146;2023-06-10T04:15:01;1329.93;;;999.90;;
68995;SDS011;56056;48.990;12.146;2023-06-10T04:17:26;1392.30;;;999.90;;
68995;SDS011;56056;48.990;12.146;2023-06-10T04:19:52;1441.55;;;999.90;;
68995;SDS011;56056;48.990;12.146;2023-06-10T04:22:19;1437.53;;;999.90;;
68995;SDS011;56056;48.990;12.146;2023-06-10T04:24:45;1223.45;;;999.90;;
68995;SDS011;56056;48.990;12.146;2023-06-10T04:27:11;1331.72;;;999.90;;
68995;SDS011;56056;48.990;12.146;2023-06-10T04:29:38;1335.40;;;999.90;;
68995;SDS011;56056;48.990;12.146;2023-06-10T04:32:04;1351.22;;;999.90;;
68995;SDS011;56056;48.990;12.146;2023-06-10T04:34:32;1377.43;;;999.90;;
68995;SDS011;56056;48.990;12.146;2023-06-10T04:36:58;1400.35;;;999.90;;
68995;SDS011;56056;48.990;12.146;2023-06-10T04:39:23;1388.10;;;999.90;;
68995;SDS011;56056;48.990;12.146;2023-06-10T04:41:49;1339.80;;;999.90;;
68995;SDS011;56056;48.990;12.146;2023-06-10T04:44:15;1521.95;;;999.90;;
68995;SDS011;56056;48.990;12.146;2023-06-10T04:46:42;1451.70;;;999.90;;
68995;SDS011;56056;48.990;12.146;2023-06-10T04:49:07;1536.60;;;999.90;;
68995;SDS011;56056;48.990;12.146;2023-06-10T04:51:33;1531.22;;;999.90;;
68995;SDS011;56056;48.990;12.146;2023-06-10T04:53:59;1642.30;;;999.90;;
68995;SDS011;56056;48.990;12.146;2023-06-10T04:56:28;1640.00;;;999.90;;
68995;SDS011;56056;48.990;12.146;2023-06-10T04:58:55;1663.65;;;999.90;;
68995;SDS011;56056;48.990;12.146;2023-06-10T05:01:21;1553.70;;;999.90;;
68995;SDS011;56056;48.990;12.146;2023-06-10T05:03:48;1540.75;;;999.90;;
68995;SDS011;56056;48.990;12.146;2023-06-10T05:06:13;1488.53;;;999.90;;
68995;SDS011;56056;48.990;12.146;2023-06-10T05:08:39;1578.82;;;999.90;;
68995;SDS011;56056;48.990;12.146;2023-06-10T05:11:05;1412.28;;;999.90;;
68995;SDS011;56056;48.990;12.146;2023-06-10T05:13:31;1370.88;;;999.90;;
68995;SDS011;56056;48.990;12.146;2023-06-10T05:15:57;1449.97;;;999.90;;
68995;SDS011;56056;48.990;12.146;2023-06-10T05:18:23;1295.57;;;999.90;;
68995;SDS011;56056;48.990;12.146;2023-06-10T05:20:50;1382.35;;;999.90;;
68995;SDS011;56056;48.990;12.146;2023-06-10T05:23:16;1209.15;;;999.90;;
68995;SDS011;56056;48.990;12.146;2023-06-10T05:25:41;1165.28;;;999.90;;
68995;SDS011;56056;48.990;12.146;2023-06-10T05:28:07;1142.05;;;999.90;;
68995;SDS011;56056;48.990;12.146;2023-06-10T05:30:35;1189.22;;;999.90;;
68995;SDS011;56056;48.990;12.146;2023-06-10T05:33:00;1141.10;;;999.90;;
68995;SDS011;56056;48.990;12.146;2023-06-10T05:35:26;1159.90;;;999.90;;
68995;SDS011;56056;48.990;12.146;2023-06-10T05:37:53;1183.28;;;999.90;;
68995;SDS011;56056;48.990;12.146;2023-06-10T05:40:19;1222.50;;;999.90;;
68995;SDS011;56056;48.990;12.146;2023-06-10T05:42:44;1576.65;;;999.90;;
68995;SDS011;56056;48.990;12.146;2023-06-10T05:45:10;1999.90;;;999.90;;
68995;SDS011;56056;48.990;12.146;2023-06-10T05:47:36;1999.90;;;999.90;;
68995;SDS011;56056;48.990;12.146;2023-06-10T05:50:02;1999.90;;;999.90;;
68995;SDS011;56056;48.990;12.146;2023-06-10T05:52:31;1924.10;;;999.90;;
68995;SDS011;56056;48.990;12.146;2023-06-10T05:54:59;1927.00;;;999.90;;
68995;SDS011;56056;48.990;12.146;2023-06-10T05:57:24;1938.68;;;999.90;;
68995;SDS011;56056;48.990;12.146;2023-06-10T05:59:51;1999.90;;;999.90;;
68995;SDS011;56056;48.990;12.146;2023-06-10T06:02:17;1999.90;;;999.90;;
68995;SDS011;56056;48.990;12.146;2023-06-10T06:04:42;1999.90;;;999.90;;
68995;SDS011;56056;48.990;12.146;2023-06-10T06:07:08;1972.18;;;999.90;;
68995;SDS011;56056;48.990;12.146;2023-06-10T06:09:34;1999.90;;;999.90;;
68995;SDS011;56056;48.990;12.146;2023-06-10T06:12:01;1999.90;;;999.90;;
68995;SDS011;56056;48.990;12.146;2023-06-10T06:14:26;1999.90;;;999.90;;
68995;SDS011;56056;48.990;12.146;2023-06-10T06:16:55;1999.90;;;999.90;;
68995;SDS011;56056;48.990;12.146;2023-06-10T06:19:21;1999.90;;;999.90;;
68995;SDS011;56056;48.990;12.146;2023-06-10T06:21:46;1806.50;;;999.90;;
68995;SDS011;56056;48.990;12.146;2023-06-10T06:24:12;1999.90;;;999.90;;
68995;SDS011;56056;48.990;12.146;2023-06-10T06:26:38;1999.90;;;999.90;;
68995;SDS011;56056;48.990;12.146;2023-06-10T06:29:05;1947.57;;;999.90;;
68995;SDS011;56056;48.990;12.146;2023-06-10T06:31:31;1999.90;;;999.90;;
68995;SDS011;56056;48.990;12.146;2023-06-10T06:33:57;1999.90;;;999.90;;
68995;SDS011;56056;48.990;12.146;2023-06-10T06:36:22;1999.90;;;999.90;;
68995;SDS011;56056;48.990;12.146;2023-06-10T06:38:48;1999.90;;;999.90;;
68995;SDS011;56056;48.990;12.146;2023-06-10T06:41:14;1999.90;;;999.90;;
68995;SDS011;56056;48.990;12.146;2023-06-10T06:43:39;1999.90;;;999.90;;
68995;SDS011;56056;48.990;12.146;2023-06-10T06:46:06;1999.90;;;999.90;;
68995;SDS011;56056;48.990;12.146;2023-06-10T06:48:32;1999.90;;;999.90;;
68995;SDS011;56056;48.990;12.146;2023-06-10T06:50:58;1999.90;;;999.90;;
68995;SDS011;56056;48.990;12.146;2023-06-10T06:53:23;1999.90;;;999.90;;
68995;SDS011;56056;48.990;12.146;2023-06-10T06:55:49;1999.90;;;999.90;;
68995;SDS011;56056;48.990;12.146;2023-06-10T06:58:15;1999.90;;;999.90;;
68995;SDS011;56056;48.990;12.146;2023-06-10T07:00:40;1999.90;;;999.90;;
68995;SDS011;56056;48.990;12.146;2023-06-10T07:03:07;1999.90;;;999.90;;
68995;SDS011;56056;48.990;12.146;2023-06-10T07:05:33;1734.35;;;999.90;;
68995;SDS011;56056;48.990;12.146;2023-06-10T07:07:58;1999.90;;;999.90;;
68995;SDS011;56056;48.990;12.146;2023-06-10T07:10:24;1999.90;;;999.90;;
68995;SDS011;56056;48.990;12.146;2023-06-10T07:12:50;1999.90;;;999.90;;
68995;SDS011;56056;48.990;12.146;2023-06-10T07:15:16;1999.90;;;999.90;;
68995;SDS011;56056;48.990;12.146;2023-06-10T07:17:42;1999.90;;;999.90;;
68995;SDS011;56056;48.990;12.146;2023-06-10T07:20:10;1999.90;;;999.90;;
68995;SDS011;56056;48.990;12.146;2023-06-10T07:22:36;1999.90;;;999.90;;
68995;SDS011;56056;48.990;12.146;2023-06-10T07:25:04;1848.78;;;999.90;;
68995;SDS011;56056;48.990;12.146;2023-06-10T07:27:30;1956.40;;;999.90;;
68995;SDS011;56056;48.990;12.146;2023-06-10T07:29:56;1996.22;;;999.90;;
68995;SDS011;56056;48.990;12.146;2023-06-10T07:32:22;1999.90;;;999.90;;
68995;SDS011;56056;48.990;12.146;2023-06-10T07:34:48;1999.90;;;999.90;;
68995;SDS011;56056;48.990;12.146;2023-06-10T07:37:15;1974.97;;;999.90;;
68995;SDS011;56056;48.990;12.146;2023-06-10T07:39:41;1962.18;;;999.90;;
68995;SDS011;56056;48.990;12.146;2023-06-10T07:42:08;1957.90;;;999.90;;
68995;SDS011;56056;48.990;12.146;2023-06-10T07:44:34;1999.90;;;999.90;;
68995;SDS011;56056;48.990;12.146;2023-06-10T07:47:00;1999.90;;;999.90;;
68995;SDS011;56056;48.990;12.146;2023-06-10T07:49:26;1921.68;;;999.90;;
68995;SDS011;56056;48.990;12.146;2023-06-10T07:51:53;1999.90;;;999.90;;
68995;SDS011;56056;48.990;12.146;2023-06-10T07:54:20;1959.55;;;999.90;;
68995;SDS011;56056;48.990;12.146;2023-06-10T07:56:46;1999.90;;;999.90;;
68995;SDS011;56056;48.990;12.146;2023-06-10T07:59:13;1999.90;;;999.90;;
68995;SDS011;56056;48.990;12.146;2023-06-10T08:01:38;1999.90;;;999.90;;
68995;SDS011;56056;48.990;12.146;2023-06-10T08:04:05;1999.90;;;999.90;;
68995;SDS011;56056;48.990;12.146;2023-06-10T08:06:30;1999.90;;;999.90;;
68995;SDS011;56056;48.990;12.146;2023-06-10T08:08:56;1999.90;;;999.90;;
68995;SDS011;56056;48.990;12.146;2023-06-10T08:11:23;1999.90;;;999.90;;
68995;SDS011;56056;48.990;12.146;2023-06-10T08:13:49;1999.90;;;999.90;;
68995;SDS011;56056;48.990;12.146;2023-06-10T08:16:14;1999.90;;;999.90;;
68995;SDS011;56056;48.990;12.146;2023-06-10T08:18:41;1999.90;;;999.90;;
68995;SDS011;56056;48.990;12.146;2023-06-10T08:21:06;1999.90;;;999.90;;
68995;SDS011;56056;48.990;12.146;2023-06-10T08:23:32;1647.90;;;999.90;;
68995;SDS011;56056;48.990;12.146;2023-06-10T08:25:58;1812.55;;;999.90;;
68995;SDS011;56056;48.990;12.146;2023-06-10T08:28:25;1673.80;;;999.90;;
68995;SDS011;56056;48.990;12.146;2023-06-10T08:30:50;1907.68;;;999.90;;
68995;SDS011;56056;48.990;12.146;2023-06-10T08:33:16;1840.30;;;999.90;;
68995;SDS011;56056;48.990;12.146;2023-06-10T08:35:42;1677.45;;;999.90;;
68995;SDS011;56056;48.990;12.146;2023-06-10T08:38:07;1687.43;;;999.90;;
68995;SDS011;56056;48.990;12.146;2023-06-10T08:40:33;1753.60;;;999.90;;
68995;SDS011;56056;48.990;12.146;2023-06-10T08:43:00;1654.25;;;999.90;;
68995;SDS011;56056;48.990;12.146;2023-06-10T08:45:30;1888.32;;;999.90;;
68995;SDS011;56056;48.990;12.146;2023-06-10T08:48:00;1999.90;;;999.90;;
68995;SDS011;56056;48.990;12.146;2023-06-10T08:50:31;1999.90;;;999.90;;
68995;SDS011;56056;48.990;12.146;2023-06-10T08:52:58;1999.90;;;999.90;;
68995;SDS011;56056;48.990;12.146;2023-06-10T08:55:27;1999.90;;;999.90;;
68995;SDS011;56056;48.990;12.146;2023-06-10T08:57:55;1999.90;;;999.90;;
68995;SDS011;56056;48.990;12.146;2023-06-10T09:00:20;1999.90;;;999.90;;
68995;SDS011;56056;48.990;12.146;2023-06-10T09:02:48;1999.90;;;999.90;;
68995;SDS011;56056;48.990;12.146;2023-06-10T09:05:14;1990.82;;;999.90;;
68995;SDS011;56056;48.990;12.146;2023-06-10T09:07:40;1909.50;;;999.90;;
68995;SDS011;56056;48.990;12.146;2023-06-10T09:10:06;1999.90;;;999.90;;
68995;SDS011;56056;48.990;12.146;2023-06-10T09:12:33;1820.72;;;999.90;;
68995;SDS011;56056;48.990;12.146;2023-06-10T09:15:00;1629.45;;;999.90;;
68995;SDS011;56056;48.990;12.146;2023-06-10T09:17:26;1441.07;;;999.90;;
68995;SDS011;56056;48.990;12.146;2023-06-10T09:19:53;1449.85;;;999.90;;
68995;SDS011;56056;48.990;12.146;2023-06-10T09:22:20;1328.53;;;999.90;;
68995;SDS011;56056;48.990;12.146;2023-06-10T09:24:46;1163.78;;;999.90;;
68995;SDS011;56056;48.990;12.146;2023-06-10T09:27:12;1171.57;;;999.90;;
68995;SDS011;56056;48.990;12.146;2023-06-10T09:29:48;1163.28;;;999.90;;
68995;SDS011;56056;48.990;12.146;2023-06-10T09:32:17;1492.00;;;999.90;;
68995;SDS011;56056;48.990;12.146;2023-06-10T09:34:43;1269.95;;;999.90;;
68995;SDS011;56056;48.990;12.146;2023-06-10T09:37:11;1175.30;;;999.90;;
68995;SDS011;56056;48.990;12.146;2023-06-10T09:39:38;1122.03;;;999.90;;
68995;SDS011;56056;48.990;12.146;2023-06-10T09:42:10;1425.18;;;999.90;;
68995;SDS011;56056;48.990;12.146;2023-06-10T09:44:40;1090.88;;;981.05;;
68995;SDS011;56056;48.990;12.146;2023-06-10T09:47:06;1109.05;;;999.63;;
68995;SDS011;56056;48.990;12.146;2023-06-10T09:49:32;1125.35;;;999.90;;
68995;SDS011;56056;48.990;12.146;2023-06-10T09:51:58;1096.78;;;991.47;;
68995;SDS011;56056;48.990;12.146;2023-06-10T09:54:25;1131.07;;;999.90;;
68995;SDS011;56056;48.990;12.146;2023-06-10T09:56:57;1083.63;;;978.28;;
68995;SDS011;56056;48.990;12.146;2023-06-10T09:59:28;1106.05;;;998.25;;
68995;SDS011;56056;48.990;12.146;2023-06-10T10:01:54;1355.70;;;999.90;;
68995;SDS011;56056;48.990;12.146;2023-06-10T10:04:23;1340.57;;;999.90;;
68995;SDS011;56056;48.990;12.146;2023-06-10T10:06:49;1117.15;;;989.92;;
68995;SDS011;56056;48.990;12.146;2023-06-10T10:09:15;1640.43;;;999.90;;
68995;SDS011;56056;48.990;12.146;2023-06-10T10:11:42;1735.82;;;999.90;;
68995;SDS011;56056;48.990;12.146;2023-06-10T10:14:08;1999.90;;;999.90;;
68995;SDS011;56056;48.990;12.146;2023-06-10T10:16:35;1999.90;;;999.90;;
68995;SDS011;56056;48.990;12.146;2023-06-10T10:19:07;1999.90;;;999.90;;
68995;SDS011;56056;48.990;12.146;2023-06-10T10:21:37;1999.90;;;999.90;;
68995;SDS011;56056;48.990;12.146;2023-06-10T10:24:07;1999.90;;;999.90;;
68995;SDS011;56056;48.990;12.146;2023-06-10T10:26:37;1999.90;;;999.90;;
68995;SDS011;56056;48.990;12.146;2023-06-10T10:29:07;1999.90;;;999.90;;
68995;SDS011;56056;48.990;12.146;2023-06-10T10:31:36;1999.90;;;999.90;;
68995;SDS011;56056;48.990;12.146;2023-06-10T10:34:04;1999.90;;;999.90;;
68995;SDS011;56056;48.990;12.146;2023-06-10T10:36:32;1999.90;;;999.90;;
68995;SDS011;56056;48.990;12.146;2023-06-10T10:38:58;1999.90;;;999.90;;
68995;SDS011;56056;48.990;12.146;2023-06-10T10:41:23;1999.90;;;999.90;;
68995;SDS011;56056;48.990;12.146;2023-06-10T10:43:51;1999.90;;;999.90;;
68995;SDS011;56056;48.990;12.146;2023-06-10T10:46:18;1673.75;;;999.90;;
68995;SDS011;56056;48.990;12.146;2023-06-10T10:48:44;1493.75;;;999.90;;
68995;SDS011;56056;48.990;12.146;2023-06-10T10:51:10;1231.72;;;999.90;;
68995;SDS011;56056;48.990;12.146;2023-06-10T10:53:36;1326.30;;;999.90;;
68995;SDS011;56056;48.990;12.146;2023-06-10T10:56:04;1147.63;;;999.90;;
68995;SDS011;56056;48.990;12.146;2023-06-10T10:58:30;1261.38;;;999.90;;
68995;SDS011;56056;48.990;12.146;2023-06-10T11:00:57;1233.22;;;999.90;;
68995;SDS011;56056;48.990;12.146;2023-06-10T11:03:27;1131.68;;;999.90;;
68995;SDS011;56056;48.990;12.146;2023-06-10T11:05:54;1201.68;;;999.90;;
68995;SDS011;56056;48.990;12.146;2023-06-10T11:11:24;1139.60;;;999.90;;
68995;SDS011;56056;48.990;12.146;2023-06-10T11:13:58;1178.30;;;999.90;;
68995;SDS011;56056;48.990;12.146;2023-06-10T11:16:26;1161.82;;;999.90;;
68995;SDS011;56056;48.990;12.146;2023-06-10T11:18:54;1130.40;;;999.90;;
68995;SDS011;56056;48.990;12.146;2023-06-10T11:21:21;1087.60;;;983.42;;
68995;SDS011;56056;48.990;12.146;2023-06-10T11:23:48;1065.00;;;966.22;;
68995;SDS011;56056;48.990;12.146;2023-06-10T11:26:19;1068.72;;;975.40;;
68995;SDS011;56056;48.990;12.146;2023-06-10T11:29:05;1072.45;;;979.45;;
68995;SDS011;56056;48.990;12.146;2023-06-10T11:31:33;970.53;;;896.60;;
68995;SDS011;56056;48.990;12.146;2023-06-10T11:34:07;1017.25;;;935.08;;
68995;SDS011;56056;48.990;12.146;2023-06-10T11:36:34;1084.43;;;989.60;;
68995;SDS011;56056;48.990;12.146;2023-06-10T11:39:02;1070.38;;;973.83;;
68995;SDS011;56056;48.990;12.146;2023-06-10T11:41:30;1152.57;;;999.90;;
68995;SDS011;56056;48.990;12.146;2023-06-10T11:43:56;1453.68;;;999.90;;
68995;SDS011;56056;48.990;12.146;2023-06-10T11:46:22;1585.18;;;999.90;;
68995;SDS011;56056;48.990;12.146;2023-06-10T11:48:49;1500.35;;;999.90;;
68995;SDS011;56056;48.990;12.146;2023-06-10T11:51:16;1261.43;;;999.90;;
68995;SDS011;56056;48.990;12.146;2023-06-10T11:53:43;1480.18;;;999.90;;
68995;SDS011;56056;48.990;12.146;2023-06-10T11:56:09;1331.40;;;999.90;;
68995;SDS011;56056;48.990;12.146;2023-06-10T11:58:35;1301.82;;;999.90;;
68995;SDS011;56056;48.990;12.146;2023-06-10T12:01:00;1241.47;;;999.90;;
68995;SDS011;56056;48.990;12.146;2023-06-10T12:03:26;1357.90;;;999.90;;
68995;SDS011;56056;48.990;12.146;2023-06-10T12:05:55;1395.47;;;999.90;;
68995;SDS011;56056;48.990;12.146;2023-06-10T12:08:23;1357.05;;;999.90;;
68995;SDS011;56056;48.990;12.146;2023-06-10T12:10:49;1240.65;;;999.90;;
68995;SDS011;56056;48.990;12.146;2023-06-10T12:13:15;1211.13;;;999.90;;
68995;SDS011;56056;48.990;12.146;2023-06-10T12:15:42;1077.05;;;975.45;;
68995;SDS011;56056;48.990;12.146;2023-06-10T12:18:08;1016.17;;;928.05;;
68995;SDS011;56056;48.990;12.146;2023-06-10T12:20:41;1034.82;;;948.05;;
68995;SDS011;56056;48.990;12.146;2023-06-10T12:23:08;1022.72;;;932.25;;
68995;SDS011;56056;48.990;12.146;2023-06-10T12:25:36;1026.75;;;937.28;;
68995;SDS011;56056;48.990;12.146;2023-06-10T12:28:02;1063.28;;;965.20;;
68995;SDS011;56056;48.990;12.146;2023-06-10T12:30:28;1149.63;;;999.90;;
68995;SDS011;56056;48.990;12.146;2023-06-10T12:32:54;1206.82;;;999.90;;
68995;SDS011;56056;48.990;12.146;2023-06-10T12:35:21;1202.45;;;999.90;;
68995;SDS011;56056;48.990;12.146;2023-06-10T12:37:56;1171.45;;;999.90;;
68995;SDS011;56056;48.990;12.146;2023-06-10T12:40:25;1172.28;;;999.90;;
68995;SDS011;56056;48.990;12.146;2023-06-10T12:42:53;1154.75;;;999.90;;
68995;SDS011;56056;48.990;12.146;2023-06-10T12:45:25;1166.32;;;999.90;;
68995;SDS011;56056;48.990;12.146;2023-06-10T12:47:51;1164.35;;;999.90;;
68995;SDS011;56056;48.990;12.146;2023-06-10T12:50:17;1143.43;;;999.90;;
68995;SDS011;56056;48.990;12.146;2023-06-10T12:52:42;1216.30;;;999.90;;
68995;SDS011;56056;48.990;12.146;2023-06-10T12:55:08;1166.32;;;999.90;;
68995;SDS011;56056;48.990;12.146;2023-06-10T12:57:34;1116.82;;;999.90;;
68995;SDS011;56056;48.990;12.146;2023-06-10T13:00:01;1107.72;;;997.13;;
68995;SDS011;56056;48.990;12.146;2023-06-10T13:02:29;1124.68;;;999.90;;
68995;SDS011;56056;48.990;12.146;2023-06-10T13:04:54;1057.50;;;959.20;;
68995;SDS011;56056;48.990;12.146;2023-06-10T13:07:20;1072.75;;;971.65;;
68995;SDS011;56056;48.990;12.146;2023-06-10T13:09:47;1062.10;;;963.58;;
68995;SDS011;56056;48.990;12.146;2023-06-10T13:12:14;1039.70;;;943.42;;
68995;SDS011;56056;48.990;12.146;2023-06-10T13:14:39;1045.22;;;951.05;;
68995;SDS011;56056;48.990;12.146;2023-06-10T13:17:06;951.95;;;876.72;;
68995;SDS011;56056;48.990;12.146;2023-06-10T13:19:32;925.55;;;847.72;;
68995;SDS011;56056;48.990;12.146;2023-06-10T13:21:58;912.63;;;837.95;;
68995;SDS011;56056;48.990;12.146;2023-06-10T13:24:24;1054.70;;;951.80;;
68995;SDS011;56056;48.990;12.146;2023-06-10T13:26:49;1507.80;;;999.90;;
68995;SDS011;56056;48.990;12.146;2023-06-10T13:29:15;1573.22;;;999.90;;
68995;SDS011;56056;48.990;12.146;2023-06-10T13:31:41;1667.72;;;999.90;;
68995;SDS011;56056;48.990;12.146;2023-06-10T13:34:08;1610.70;;;999.90;;